sensor_id;sensor_type;location;lat;lon;timestamp;P1;durP1;ratioP1;P2;durP2;ratioP2
64682;SDS011;51107;47.652;19.016;2024-02-23T00:00:00;2.20;;;0.88;;
64682;SDS011;51107;47.652;19.016;2024-02-23T00:02:32;1.77;;;1.23;;
64682;SDS011;51107;47.652;19.016;2024-02-23T00:05:01;1.77;;;0.90;;
64682;SDS011;51107;47.652;19.016;2024-02-23T00:07:29;2.15;;;0.82;;
64682;SDS011;51107;47.652;19.016;2024-02-23T00:09:58;4.20;;;1.20;;
64682;SDS011;51107;47.652;19.016;2024-02-23T00:12:26;0.98;;;0.70;;
64682;SDS011;51107;47.652;19.016;2024-02-23T00:14:54;3.97;;;1.20;;
64682;SDS011;51107;47.652;19.016;2024-02-23T00:17:22;2.15;;;1.00;;
64682;SDS011;51107;47.652;19.016;2024-02-23T00:19:51;2.62;;;1.00;;
64682;SDS011;51107;47.652;19.016;2024-02-23T00:22:20;1.92;;;0.90;;
64682;SDS011;51107;47.652;19.016;2024-02-23T00:24:48;1.30;;;0.73;;
64682;SDS011;51107;47.652;19.016;2024-02-23T00:27:16;1.65;;;1.10;;
64682;SDS011;51107;47.652;19.016;2024-02-23T00:29:45;1.10;;;0.80;;
64682;SDS011;51107;47.652;19.016;2024-02-23T00:32:13;1.08;;;0.70;;
64682;SDS011;51107;47.652;19.016;2024-02-23T00:34:41;3.25;;;1.10;;
64682;SDS011;51107;47.652;19.016;2024-02-23T00:37:09;1.98;;;0.90;;
64682;SDS011;51107;47.652;19.016;2024-02-23T00:39:37;1.95;;;0.80;;
64682;SDS011;51107;47.652;19.016;2024-02-23T00:42:05;2.90;;;0.95;;
64682;SDS011;51107;47.652;19.016;2024-02-23T00:44:33;0.70;;;0.60;;
64682;SDS011;51107;47.652;19.016;2024-02-23T00:47:01;1.27;;;0.65;;
64682;SDS011;51107;47.652;19.016;2024-02-23T00:49:31;1.27;;;0.70;;
64682;SDS011;51107;47.652;19.016;2024-02-23T00:51:59;1.25;;;0.90;;
64682;SDS011;51107;47.652;19.016;2024-02-23T00:54:27;0.93;;;0.70;;
64682;SDS011;51107;47.652;19.016;2024-02-23T00:56:56;2.08;;;1.05;;
64682;SDS011;51107;47.652;19.016;2024-02-23T00:59:24;0.90;;;0.73;;
64682;SDS011;51107;47.652;19.016;2024-02-23T01:01:52;1.40;;;1.00;;
64682;SDS011;51107;47.652;19.016;2024-02-23T01:04:21;5.10;;;1.00;;
64682;SDS011;51107;47.652;19.016;2024-02-23T01:06:50;1.60;;;1.05;;
64682;SDS011;51107;47.652;19.016;2024-02-23T01:09:18;0.77;;;0.70;;
64682;SDS011;51107;47.652;19.016;2024-02-23T01:11:48;2.40;;;1.33;;
64682;SDS011;51107;47.652;19.016;2024-02-23T01:14:16;2.65;;;1.15;;
64682;SDS011;51107;47.652;19.016;2024-02-23T01:16:44;5.78;;;1.33;;
64682;SDS011;51107;47.652;19.016;2024-02-23T01:19:13;2.12;;;0.90;;
64682;SDS011;51107;47.652;19.016;2024-02-23T01:21:41;4.60;;;0.95;;
64682;SDS011;51107;47.652;19.016;2024-02-23T01:24:09;1.27;;;0.85;;
64682;SDS011;51107;47.652;19.016;2024-02-23T01:26:37;1.52;;;0.85;;
64682;SDS011;51107;47.652;19.016;2024-02-23T01:29:09;1.80;;;1.10;;
64682;SDS011;51107;47.652;19.016;2024-02-23T01:31:38;1.42;;;0.98;;
64682;SDS011;51107;47.652;19.016;2024-02-23T01:34:06;2.90;;;1.20;;
64682;SDS011;51107;47.652;19.016;2024-02-23T01:36:35;1.15;;;0.80;;
64682;SDS011;51107;47.652;19.016;2024-02-23T01:39:04;1.20;;;0.80;;
64682;SDS011;51107;47.652;19.016;2024-02-23T01:41:32;2.33;;;0.80;;
64682;SDS011;51107;47.652;19.016;2024-02-23T01:44:00;2.72;;;0.98;;
64682;SDS011;51107;47.652;19.016;2024-02-23T01:46:29;1.67;;;0.75;;
64682;SDS011;51107;47.652;19.016;2024-02-23T01:48:57;2.03;;;1.08;;
64682;SDS011;51107;47.652;19.016;2024-02-23T01:51:25;1.90;;;1.20;;
64682;SDS011;51107;47.652;19.016;2024-02-23T01:53:54;1.95;;;1.12;;
64682;SDS011;51107;47.652;19.016;2024-02-23T01:56:22;1.60;;;0.85;;
64682;SDS011;51107;47.652;19.016;2024-02-23T01:58:51;2.28;;;0.93;;
64682;SDS011;51107;47.652;19.016;2024-02-23T02:01:21;1.90;;;1.05;;
64682;SDS011;51107;47.652;19.016;2024-02-23T02:03:49;2.22;;;1.23;;
64682;SDS011;51107;47.652;19.016;2024-02-23T02:06:17;1.05;;;0.95;;
64682;SDS011;51107;47.652;19.016;2024-02-23T02:08:45;1.48;;;0.98;;
64682;SDS011;51107;47.652;19.016;2024-02-23T02:11:13;1.50;;;1.00;;
64682;SDS011;51107;47.652;19.016;2024-02-23T02:13:42;1.87;;;1.10;;
64682;SDS011;51107;47.652;19.016;2024-02-23T02:16:11;3.90;;;1.02;;
64682;SDS011;51107;47.652;19.016;2024-02-23T02:18:39;3.75;;;1.27;;
64682;SDS011;51107;47.652;19.016;2024-02-23T02:21:07;1.92;;;1.30;;
64682;SDS011;51107;47.652;19.016;2024-02-23T02:23:35;4.00;;;1.20;;
64682;SDS011;51107;47.652;19.016;2024-02-23T02:26:05;3.17;;;1.20;;
64682;SDS011;51107;47.652;19.016;2024-02-23T02:28:33;3.87;;;1.33;;
64682;SDS011;51107;47.652;19.016;2024-02-23T02:31:02;2.05;;;1.00;;
64682;SDS011;51107;47.652;19.016;2024-02-23T02:33:31;1.95;;;1.02;;
64682;SDS011;51107;47.652;19.016;2024-02-23T02:35:59;1.23;;;0.90;;
64682;SDS011;51107;47.652;19.016;2024-02-23T02:38:27;1.87;;;1.02;;
64682;SDS011;51107;47.652;19.016;2024-02-23T02:40:56;4.05;;;1.75;;
64682;SDS011;51107;47.652;19.016;2024-02-23T02:43:25;1.12;;;0.80;;
64682;SDS011;51107;47.652;19.016;2024-02-23T02:45:53;1.90;;;1.17;;
64682;SDS011;51107;47.652;19.016;2024-02-23T02:48:21;1.30;;;1.00;;
64682;SDS011;51107;47.652;19.016;2024-02-23T02:50:49;3.97;;;1.17;;
64682;SDS011;51107;47.652;19.016;2024-02-23T02:53:21;1.23;;;0.95;;
64682;SDS011;51107;47.652;19.016;2024-02-23T02:55:49;2.85;;;1.45;;
64682;SDS011;51107;47.652;19.016;2024-02-23T02:58:17;2.05;;;1.12;;
64682;SDS011;51107;47.652;19.016;2024-02-23T03:00:45;1.70;;;1.10;;
64682;SDS011;51107;47.652;19.016;2024-02-23T03:03:13;2.37;;;1.05;;
64682;SDS011;51107;47.652;19.016;2024-02-23T03:05:41;1.60;;;0.90;;
64682;SDS011;51107;47.652;19.016;2024-02-23T03:08:10;1.60;;;1.00;;
64682;SDS011;51107;47.652;19.016;2024-02-23T03:10:37;1.50;;;0.88;;
64682;SDS011;51107;47.652;19.016;2024-02-23T03:13:06;2.10;;;1.17;;
64682;SDS011;51107;47.652;19.016;2024-02-23T03:15:34;3.85;;;0.85;;
64682;SDS011;51107;47.652;19.016;2024-02-23T03:18:02;1.80;;;1.25;;
64682;SDS011;51107;47.652;19.016;2024-02-23T03:20:30;1.25;;;0.88;;
64682;SDS011;51107;47.652;19.016;2024-02-23T03:22:59;1.55;;;0.98;;
64682;SDS011;51107;47.652;19.016;2024-02-23T03:25:26;2.87;;;1.17;;
64682;SDS011;51107;47.652;19.016;2024-02-23T03:27:54;2.05;;;1.05;;
64682;SDS011;51107;47.652;19.016;2024-02-23T03:30:23;2.47;;;1.25;;
64682;SDS011;51107;47.652;19.016;2024-02-23T03:32:51;1.95;;;1.20;;
64682;SDS011;51107;47.652;19.016;2024-02-23T03:35:19;1.80;;;1.20;;
64682;SDS011;51107;47.652;19.016;2024-02-23T03:37:47;1.77;;;1.10;;
64682;SDS011;51107;47.652;19.016;2024-02-23T03:40:15;3.25;;;1.02;;
64682;SDS011;51107;47.652;19.016;2024-02-23T03:42:45;1.95;;;1.20;;
64682;SDS011;51107;47.652;19.016;2024-02-23T03:45:14;2.08;;;1.23;;
64682;SDS011;51107;47.652;19.016;2024-02-23T03:47:42;2.08;;;1.10;;
64682;SDS011;51107;47.652;19.016;2024-02-23T03:50:10;3.15;;;1.10;;
64682;SDS011;51107;47.652;19.016;2024-02-23T03:52:38;1.70;;;1.05;;
64682;SDS011;51107;47.652;19.016;2024-02-23T03:55:06;1.10;;;0.70;;
64682;SDS011;51107;47.652;19.016;2024-02-23T03:57:34;3.28;;;1.17;;
64682;SDS011;51107;47.652;19.016;2024-02-23T04:00:03;1.90;;;0.90;;
64682;SDS011;51107;47.652;19.016;2024-02-23T04:02:38;6.32;;;1.12;;
64682;SDS011;51107;47.652;19.016;2024-02-23T04:05:06;2.30;;;1.30;;
64682;SDS011;51107;47.652;19.016;2024-02-23T04:07:34;1.48;;;1.05;;
64682;SDS011;51107;47.652;19.016;2024-02-23T04:10:02;2.58;;;1.55;;
64682;SDS011;51107;47.652;19.016;2024-02-23T04:12:32;2.60;;;1.48;;
64682;SDS011;51107;47.652;19.016;2024-02-23T04:15:00;1.83;;;0.75;;
64682;SDS011;51107;47.652;19.016;2024-02-23T04:17:28;1.05;;;0.88;;
64682;SDS011;51107;47.652;19.016;2024-02-23T04:19:57;2.17;;;1.40;;
64682;SDS011;51107;47.652;19.016;2024-02-23T04:22:26;2.65;;;1.10;;
64682;SDS011;51107;47.652;19.016;2024-02-23T04:24:54;1.65;;;0.98;;
64682;SDS011;51107;47.652;19.016;2024-02-23T04:27:22;2.40;;;1.27;;
64682;SDS011;51107;47.652;19.016;2024-02-23T04:29:50;3.22;;;1.35;;
64682;SDS011;51107;47.652;19.016;2024-02-23T04:32:18;3.83;;;1.67;;
64682;SDS011;51107;47.652;19.016;2024-02-23T04:34:46;1.12;;;0.85;;
64682;SDS011;51107;47.652;19.016;2024-02-23T04:37:15;1.58;;;1.00;;
64682;SDS011;51107;47.652;19.016;2024-02-23T04:39:43;1.75;;;1.08;;
64682;SDS011;51107;47.652;19.016;2024-02-23T04:42:12;1.65;;;1.20;;
64682;SDS011;51107;47.652;19.016;2024-02-23T04:44:43;3.25;;;0.85;;
64682;SDS011;51107;47.652;19.016;2024-02-23T04:47:11;0.68;;;0.60;;
64682;SDS011;51107;47.652;19.016;2024-02-23T04:49:39;1.55;;;0.80;;
64682;SDS011;51107;47.652;19.016;2024-02-23T04:52:07;0.95;;;0.82;;
64682;SDS011;51107;47.652;19.016;2024-02-23T04:54:36;1.87;;;1.05;;
64682;SDS011;51107;47.652;19.016;2024-02-23T04:57:04;1.55;;;1.00;;
64682;SDS011;51107;47.652;19.016;2024-02-23T04:59:32;1.58;;;0.90;;
64682;SDS011;51107;47.652;19.016;2024-02-23T05:02:00;1.58;;;1.12;;
64682;SDS011;51107;47.652;19.016;2024-02-23T05:04:28;2.47;;;1.02;;
64682;SDS011;51107;47.652;19.016;2024-02-23T05:06:56;5.78;;;1.00;;
64682;SDS011;51107;47.652;19.016;2024-02-23T05:09:24;1.75;;;0.95;;
64682;SDS011;51107;47.652;19.016;2024-02-23T05:11:53;1.12;;;0.80;;
64682;SDS011;51107;47.652;19.016;2024-02-23T05:14:21;0.70;;;0.60;;
64682;SDS011;51107;47.652;19.016;2024-02-23T05:16:49;1.58;;;1.10;;
64682;SDS011;51107;47.652;19.016;2024-02-23T05:19:17;1.30;;;0.60;;
64682;SDS011;51107;47.652;19.016;2024-02-23T05:21:45;0.95;;;0.62;;
64682;SDS011;51107;47.652;19.016;2024-02-23T05:24:13;4.07;;;1.00;;
64682;SDS011;51107;47.652;19.016;2024-02-23T05:26:42;1.48;;;0.95;;
64682;SDS011;51107;47.652;19.016;2024-02-23T05:29:11;2.25;;;1.27;;
64682;SDS011;51107;47.652;19.016;2024-02-23T05:31:48;0.75;;;0.60;;
64682;SDS011;51107;47.652;19.016;2024-02-23T05:34:17;0.57;;;0.43;;
64682;SDS011;51107;47.652;19.016;2024-02-23T05:36:48;1.42;;;0.65;;
64682;SDS011;51107;47.652;19.016;2024-02-23T05:39:19;1.02;;;0.60;;
64682;SDS011;51107;47.652;19.016;2024-02-23T05:41:47;0.70;;;0.60;;
64682;SDS011;51107;47.652;19.016;2024-02-23T05:44:15;0.88;;;0.70;;
64682;SDS011;51107;47.652;19.016;2024-02-23T05:46:43;1.02;;;0.60;;
64682;SDS011;51107;47.652;19.016;2024-02-23T05:49:12;0.85;;;0.70;;
64682;SDS011;51107;47.652;19.016;2024-02-23T05:51:40;0.70;;;0.60;;
64682;SDS011;51107;47.652;19.016;2024-02-23T05:54:09;1.00;;;0.60;;
64682;SDS011;51107;47.652;19.016;2024-02-23T05:56:38;1.62;;;0.52;;
64682;SDS011;51107;47.652;19.016;2024-02-23T05:59:06;0.62;;;0.52;;
64682;SDS011;51107;47.652;19.016;2024-02-23T06:01:35;0.82;;;0.50;;
64682;SDS011;51107;47.652;19.016;2024-02-23T06:04:04;0.40;;;0.40;;
64682;SDS011;51107;47.652;19.016;2024-02-23T06:06:33;2.70;;;0.40;;
64682;SDS011;51107;47.652;19.016;2024-02-23T06:09:01;1.05;;;0.55;;
64682;SDS011;51107;47.652;19.016;2024-02-23T06:11:30;0.75;;;0.50;;
64682;SDS011;51107;47.652;19.016;2024-02-23T06:13:59;0.55;;;0.37;;
64682;SDS011;51107;47.652;19.016;2024-02-23T06:16:27;0.25;;;0.22;;
64682;SDS011;51107;47.652;19.016;2024-02-23T06:18:56;1.08;;;0.30;;
64682;SDS011;51107;47.652;19.016;2024-02-23T06:21:24;0.75;;;0.40;;
64682;SDS011;51107;47.652;19.016;2024-02-23T06:23:52;3.85;;;0.43;;
64682;SDS011;51107;47.652;19.016;2024-02-23T06:26:20;0.10;;;0.10;;
64682;SDS011;51107;47.652;19.016;2024-02-23T06:28:49;1.23;;;0.68;;
64682;SDS011;51107;47.652;19.016;2024-02-23T06:31:17;2.42;;;1.02;;
64682;SDS011;51107;47.652;19.016;2024-02-23T06:33:45;0.47;;;0.30;;
64682;SDS011;51107;47.652;19.016;2024-02-23T06:36:17;0.88;;;0.57;;
64682;SDS011;51107;47.652;19.016;2024-02-23T06:38:46;1.10;;;0.75;;
64682;SDS011;51107;47.652;19.016;2024-02-23T06:41:15;0.40;;;0.40;;
64682;SDS011;51107;47.652;19.016;2024-02-23T06:43:43;1.98;;;1.02;;
64682;SDS011;51107;47.652;19.016;2024-02-23T06:46:11;1.90;;;0.65;;
64682;SDS011;51107;47.652;19.016;2024-02-23T06:48:39;3.17;;;1.17;;
64682;SDS011;51107;47.652;19.016;2024-02-23T06:51:07;0.82;;;0.50;;
64682;SDS011;51107;47.652;19.016;2024-02-23T06:53:38;1.65;;;1.02;;
64682;SDS011;51107;47.652;19.016;2024-02-23T06:56:06;4.40;;;2.47;;
64682;SDS011;51107;47.652;19.016;2024-02-23T06:58:35;2.20;;;1.70;;
64682;SDS011;51107;47.652;19.016;2024-02-23T07:01:04;3.92;;;1.60;;
64682;SDS011;51107;47.652;19.016;2024-02-23T07:03:34;1.62;;;0.80;;
64682;SDS011;51107;47.652;19.016;2024-02-23T07:06:03;1.65;;;0.80;;
64682;SDS011;51107;47.652;19.016;2024-02-23T07:08:32;0.75;;;0.60;;
64682;SDS011;51107;47.652;19.016;2024-02-23T07:11:00;0.77;;;0.52;;
64682;SDS011;51107;47.652;19.016;2024-02-23T07:13:28;1.12;;;0.70;;
64682;SDS011;51107;47.652;19.016;2024-02-23T07:15:57;1.37;;;0.75;;
64682;SDS011;51107;47.652;19.016;2024-02-23T07:18:27;1.33;;;0.77;;
64682;SDS011;51107;47.652;19.016;2024-02-23T07:20:56;5.43;;;0.93;;
64682;SDS011;51107;47.652;19.016;2024-02-23T07:23:24;0.93;;;0.65;;
64682;SDS011;51107;47.652;19.016;2024-02-23T07:25:52;0.73;;;0.60;;
64682;SDS011;51107;47.652;19.016;2024-02-23T07:28:21;0.77;;;0.55;;
64682;SDS011;51107;47.652;19.016;2024-02-23T07:30:50;1.73;;;0.88;;
64682;SDS011;51107;47.652;19.016;2024-02-23T07:33:18;2.03;;;0.85;;
64682;SDS011;51107;47.652;19.016;2024-02-23T07:35:47;1.52;;;0.65;;
64682;SDS011;51107;47.652;19.016;2024-02-23T07:38:15;1.00;;;0.43;;
64682;SDS011;51107;47.652;19.016;2024-02-23T07:40:45;1.83;;;0.60;;
64682;SDS011;51107;47.652;19.016;2024-02-23T07:43:14;0.37;;;0.35;;
64682;SDS011;51107;47.652;19.016;2024-02-23T07:45:42;0.77;;;0.43;;
64682;SDS011;51107;47.652;19.016;2024-02-23T07:48:11;1.48;;;0.90;;
64682;SDS011;51107;47.652;19.016;2024-02-23T07:50:39;2.60;;;1.15;;
64682;SDS011;51107;47.652;19.016;2024-02-23T07:53:07;1.48;;;0.77;;
64682;SDS011;51107;47.652;19.016;2024-02-23T07:55:35;0.70;;;0.68;;
64682;SDS011;51107;47.652;19.016;2024-02-23T07:58:03;1.00;;;0.60;;
64682;SDS011;51107;47.652;19.016;2024-02-23T08:00:31;1.15;;;0.65;;
64682;SDS011;51107;47.652;19.016;2024-02-23T08:03:00;0.62;;;0.47;;
64682;SDS011;51107;47.652;19.016;2024-02-23T08:05:28;0.90;;;0.60;;
64682;SDS011;51107;47.652;19.016;2024-02-23T08:07:56;3.12;;;0.80;;
64682;SDS011;51107;47.652;19.016;2024-02-23T08:10:25;1.10;;;0.60;;
64682;SDS011;51107;47.652;19.016;2024-02-23T08:12:53;1.35;;;0.60;;
64682;SDS011;51107;47.652;19.016;2024-02-23T08:15:21;1.85;;;0.68;;
64682;SDS011;51107;47.652;19.016;2024-02-23T08:17:49;2.42;;;0.40;;
64682;SDS011;51107;47.652;19.016;2024-02-23T08:20:18;1.12;;;0.85;;
64682;SDS011;51107;47.652;19.016;2024-02-23T08:22:46;1.05;;;0.50;;
64682;SDS011;51107;47.652;19.016;2024-02-23T08:25:14;1.50;;;0.52;;
64682;SDS011;51107;47.652;19.016;2024-02-23T08:27:42;1.35;;;0.65;;
64682;SDS011;51107;47.652;19.016;2024-02-23T08:30:11;0.60;;;0.57;;
64682;SDS011;51107;47.652;19.016;2024-02-23T08:32:41;0.45;;;0.40;;
64682;SDS011;51107;47.652;19.016;2024-02-23T08:35:09;1.27;;;0.50;;
64682;SDS011;51107;47.652;19.016;2024-02-23T08:37:37;5.05;;;0.50;;
64682;SDS011;51107;47.652;19.016;2024-02-23T08:40:07;0.45;;;0.40;;
64682;SDS011;51107;47.652;19.016;2024-02-23T08:42:35;0.30;;;0.30;;
64682;SDS011;51107;47.652;19.016;2024-02-23T08:45:04;0.22;;;0.20;;
64682;SDS011;51107;47.652;19.016;2024-02-23T08:47:33;0.60;;;0.30;;
64682;SDS011;51107;47.652;19.016;2024-02-23T08:50:03;0.30;;;0.28;;
64682;SDS011;51107;47.652;19.016;2024-02-23T08:52:32;0.45;;;0.35;;
64682;SDS011;51107;47.652;19.016;2024-02-23T08:55:00;1.25;;;0.50;;
64682;SDS011;51107;47.652;19.016;2024-02-23T08:57:28;0.98;;;0.37;;
64682;SDS011;51107;47.652;19.016;2024-02-23T08:59:56;0.70;;;0.40;;
64682;SDS011;51107;47.652;19.016;2024-02-23T09:02:26;0.77;;;0.50;;
64682;SDS011;51107;47.652;19.016;2024-02-23T09:04:54;0.25;;;0.20;;
64682;SDS011;51107;47.652;19.016;2024-02-23T09:07:22;0.50;;;0.40;;
64682;SDS011;51107;47.652;19.016;2024-02-23T09:09:52;0.80;;;0.50;;
64682;SDS011;51107;47.652;19.016;2024-02-23T09:12:21;0.20;;;0.20;;
64682;SDS011;51107;47.652;19.016;2024-02-23T09:14:49;0.30;;;0.30;;
64682;SDS011;51107;47.652;19.016;2024-02-23T09:17:17;0.43;;;0.28;;
64682;SDS011;51107;47.652;19.016;2024-02-23T09:19:47;3.78;;;0.32;;
64682;SDS011;51107;47.652;19.016;2024-02-23T09:22:15;0.65;;;0.62;;
64682;SDS011;51107;47.652;19.016;2024-02-23T09:24:44;0.50;;;0.40;;
64682;SDS011;51107;47.652;19.016;2024-02-23T09:27:12;0.93;;;0.50;;
64682;SDS011;51107;47.652;19.016;2024-02-23T09:29:40;0.52;;;0.37;;
64682;SDS011;51107;47.652;19.016;2024-02-23T09:32:08;0.65;;;0.50;;
64682;SDS011;51107;47.652;19.016;2024-02-23T09:34:37;0.80;;;0.50;;
64682;SDS011;51107;47.652;19.016;2024-02-23T09:37:04;0.60;;;0.40;;
64682;SDS011;51107;47.652;19.016;2024-02-23T09:39:33;0.30;;;0.30;;
64682;SDS011;51107;47.652;19.016;2024-02-23T09:42:01;0.45;;;0.37;;
64682;SDS011;51107;47.652;19.016;2024-02-23T09:44:32;0.65;;;0.40;;
64682;SDS011;51107;47.652;19.016;2024-02-23T09:47:04;0.55;;;0.43;;
64682;SDS011;51107;47.652;19.016;2024-02-23T09:49:39;0.20;;;0.20;;
64682;SDS011;51107;47.652;19.016;2024-02-23T09:52:08;0.95;;;0.40;;
64682;SDS011;51107;47.652;19.016;2024-02-23T09:54:37;0.25;;;0.25;;
64682;SDS011;51107;47.652;19.016;2024-02-23T09:57:07;0.60;;;0.30;;
64682;SDS011;51107;47.652;19.016;2024-02-23T09:59:36;0.25;;;0.25;;
64682;SDS011;51107;47.652;19.016;2024-02-23T10:02:09;1.20;;;0.45;;
64682;SDS011;51107;47.652;19.016;2024-02-23T10:04:42;0.88;;;0.50;;
64682;SDS011;51107;47.652;19.016;2024-02-23T10:09:45;2.37;;;0.37;;
64682;SDS011;51107;47.652;19.016;2024-02-23T10:12:15;0.52;;;0.40;;
64682;SDS011;51107;47.652;19.016;2024-02-23T10:14:44;1.15;;;0.60;;
64682;SDS011;51107;47.652;19.016;2024-02-23T10:17:12;1.12;;;0.60;;
64682;SDS011;51107;47.652;19.016;2024-02-23T10:19:43;1.50;;;0.62;;
64682;SDS011;51107;47.652;19.016;2024-02-23T10:22:12;1.52;;;0.88;;
64682;SDS011;51107;47.652;19.016;2024-02-23T10:24:41;1.92;;;0.70;;
64682;SDS011;51107;47.652;19.016;2024-02-23T10:27:10;1.25;;;0.73;;
64682;SDS011;51107;47.652;19.016;2024-02-23T10:29:38;1.90;;;0.90;;
64682;SDS011;51107;47.652;19.016;2024-02-23T10:32:06;1.67;;;0.85;;
64682;SDS011;51107;47.652;19.016;2024-02-23T10:34:38;0.70;;;0.60;;
64682;SDS011;51107;47.652;19.016;2024-02-23T10:37:12;1.08;;;0.47;;
64682;SDS011;51107;47.652;19.016;2024-02-23T10:39:40;0.68;;;0.43;;
64682;SDS011;51107;47.652;19.016;2024-02-23T10:42:09;0.75;;;0.40;;
64682;SDS011;51107;47.652;19.016;2024-02-23T10:44:38;1.17;;;0.52;;
64682;SDS011;51107;47.652;19.016;2024-02-23T10:47:08;2.97;;;1.77;;
64682;SDS011;51107;47.652;19.016;2024-02-23T10:49:37;1.05;;;0.70;;
64682;SDS011;51107;47.652;19.016;2024-02-23T10:52:06;1.05;;;0.50;;
64682;SDS011;51107;47.652;19.016;2024-02-23T10:54:37;0.32;;;0.25;;
64682;SDS011;51107;47.652;19.016;2024-02-23T10:57:06;1.10;;;0.40;;
64682;SDS011;51107;47.652;19.016;2024-02-23T10:59:34;0.40;;;0.30;;
64682;SDS011;51107;47.652;19.016;2024-02-23T11:02:03;0.62;;;0.50;;
64682;SDS011;51107;47.652;19.016;2024-02-23T11:04:31;0.60;;;0.37;;
64682;SDS011;51107;47.652;19.016;2024-02-23T11:07:01;0.50;;;0.40;;
64682;SDS011;51107;47.652;19.016;2024-02-23T11:09:33;1.12;;;0.45;;
64682;SDS011;51107;47.652;19.016;2024-02-23T11:12:03;1.17;;;0.50;;
64682;SDS011;51107;47.652;19.016;2024-02-23T11:14:36;1.08;;;0.55;;
64682;SDS011;51107;47.652;19.016;2024-02-23T11:17:05;0.73;;;0.50;;
64682;SDS011;51107;47.652;19.016;2024-02-23T11:19:34;0.80;;;0.50;;
64682;SDS011;51107;47.652;19.016;2024-02-23T11:22:04;2.03;;;1.00;;
64682;SDS011;51107;47.652;19.016;2024-02-23T11:24:49;1.17;;;0.70;;
64682;SDS011;51107;47.652;19.016;2024-02-23T11:27:22;0.55;;;0.40;;
64682;SDS011;51107;47.652;19.016;2024-02-23T11:30:02;0.85;;;0.45;;
64682;SDS011;51107;47.652;19.016;2024-02-23T11:32:40;1.98;;;0.88;;
64682;SDS011;51107;47.652;19.016;2024-02-23T11:35:11;1.00;;;0.50;;
64682;SDS011;51107;47.652;19.016;2024-02-23T11:37:43;1.90;;;0.80;;
64682;SDS011;51107;47.652;19.016;2024-02-23T11:40:33;2.40;;;0.80;;
64682;SDS011;51107;47.652;19.016;2024-02-23T11:43:02;2.05;;;0.70;;
64682;SDS011;51107;47.652;19.016;2024-02-23T11:45:31;0.60;;;0.40;;
64682;SDS011;51107;47.652;19.016;2024-02-23T11:48:00;3.10;;;0.77;;
64682;SDS011;51107;47.652;19.016;2024-02-23T11:50:28;2.28;;;0.77;;
64682;SDS011;51107;47.652;19.016;2024-02-23T11:52:57;1.73;;;0.65;;
64682;SDS011;51107;47.652;19.016;2024-02-23T11:55:26;1.30;;;0.68;;
64682;SDS011;51107;47.652;19.016;2024-02-23T11:57:54;1.48;;;0.65;;
64682;SDS011;51107;47.652;19.016;2024-02-23T12:00:35;1.10;;;0.60;;
64682;SDS011;51107;47.652;19.016;2024-02-23T12:03:03;0.52;;;0.40;;
64682;SDS011;51107;47.652;19.016;2024-02-23T12:05:33;1.20;;;0.60;;
64682;SDS011;51107;47.652;19.016;2024-02-23T12:08:01;1.23;;;0.75;;
64682;SDS011;51107;47.652;19.016;2024-02-23T12:10:29;5.32;;;0.80;;
64682;SDS011;51107;47.652;19.016;2024-02-23T12:12:58;2.00;;;0.52;;
64682;SDS011;51107;47.652;19.016;2024-02-23T12:15:26;1.85;;;0.65;;
64682;SDS011;51107;47.652;19.016;2024-02-23T12:17:57;1.95;;;1.10;;
64682;SDS011;51107;47.652;19.016;2024-02-23T12:20:27;1.75;;;0.90;;
64682;SDS011;51107;47.652;19.016;2024-02-23T12:23:01;1.75;;;0.82;;
64682;SDS011;51107;47.652;19.016;2024-02-23T12:25:29;1.75;;;0.77;;
64682;SDS011;51107;47.652;19.016;2024-02-23T12:27:57;3.55;;;1.30;;
64682;SDS011;51107;47.652;19.016;2024-02-23T12:30:26;2.10;;;0.90;;
64682;SDS011;51107;47.652;19.016;2024-02-23T12:33:04;1.12;;;0.73;;
64682;SDS011;51107;47.652;19.016;2024-02-23T12:35:33;1.98;;;1.02;;
64682;SDS011;51107;47.652;19.016;2024-02-23T12:38:03;1.15;;;0.90;;
64682;SDS011;51107;47.652;19.016;2024-02-23T12:40:31;0.95;;;0.70;;
64682;SDS011;51107;47.652;19.016;2024-02-23T12:43:00;1.48;;;0.90;;
64682;SDS011;51107;47.652;19.016;2024-02-23T12:45:28;3.45;;;1.00;;
64682;SDS011;51107;47.652;19.016;2024-02-23T12:47:56;4.47;;;1.15;;
64682;SDS011;51107;47.652;19.016;2024-02-23T12:50:25;1.83;;;0.80;;
64682;SDS011;51107;47.652;19.016;2024-02-23T12:52:55;2.17;;;0.95;;
64682;SDS011;51107;47.652;19.016;2024-02-23T12:55:23;2.60;;;1.25;;
64682;SDS011;51107;47.652;19.016;2024-02-23T12:57:51;2.37;;;1.45;;
64682;SDS011;51107;47.652;19.016;2024-02-23T13:00:19;1.55;;;1.10;;
64682;SDS011;51107;47.652;19.016;2024-02-23T13:02:48;4.20;;;1.40;;
64682;SDS011;51107;47.652;19.016;2024-02-23T13:05:16;6.15;;;2.15;;
64682;SDS011;51107;47.652;19.016;2024-02-23T13:07:45;6.35;;;2.90;;
64682;SDS011;51107;47.652;19.016;2024-02-23T13:10:13;6.50;;;2.62;;
64682;SDS011;51107;47.652;19.016;2024-02-23T13:12:43;5.82;;;1.85;;
64682;SDS011;51107;47.652;19.016;2024-02-23T13:15:10;5.25;;;1.87;;
64682;SDS011;51107;47.652;19.016;2024-02-23T13:17:39;2.25;;;1.50;;
64682;SDS011;51107;47.652;19.016;2024-02-23T13:20:08;5.20;;;2.08;;
64682;SDS011;51107;47.652;19.016;2024-02-23T13:22:39;4.53;;;2.55;;
64682;SDS011;51107;47.652;19.016;2024-02-23T13:25:07;5.87;;;2.83;;
64682;SDS011;51107;47.652;19.016;2024-02-23T13:27:37;2.58;;;2.03;;
64682;SDS011;51107;47.652;19.016;2024-02-23T13:30:05;2.03;;;1.20;;
64682;SDS011;51107;47.652;19.016;2024-02-23T13:32:35;2.83;;;1.37;;
64682;SDS011;51107;47.652;19.016;2024-02-23T13:35:04;5.15;;;1.77;;
64682;SDS011;51107;47.652;19.016;2024-02-23T13:37:35;4.47;;;1.55;;
64682;SDS011;51107;47.652;19.016;2024-02-23T13:40:04;1.55;;;1.27;;
64682;SDS011;51107;47.652;19.016;2024-02-23T13:42:33;3.97;;;1.70;;
64682;SDS011;51107;47.652;19.016;2024-02-23T13:45:04;4.57;;;2.25;;
64682;SDS011;51107;47.652;19.016;2024-02-23T13:47:33;3.65;;;1.80;;
64682;SDS011;51107;47.652;19.016;2024-02-23T13:50:04;8.93;;;3.60;;
64682;SDS011;51107;47.652;19.016;2024-02-23T13:52:37;5.65;;;2.53;;
64682;SDS011;51107;47.652;19.016;2024-02-23T13:55:05;3.97;;;2.28;;
64682;SDS011;51107;47.652;19.016;2024-02-23T13:57:34;4.60;;;2.20;;
64682;SDS011;51107;47.652;19.016;2024-02-23T14:00:02;10.02;;;2.35;;
64682;SDS011;51107;47.652;19.016;2024-02-23T14:02:39;3.80;;;2.05;;
64682;SDS011;51107;47.652;19.016;2024-02-23T14:05:08;5.65;;;2.62;;
64682;SDS011;51107;47.652;19.016;2024-02-23T14:07:36;6.12;;;2.20;;
64682;SDS011;51107;47.652;19.016;2024-02-23T14:10:04;5.93;;;2.47;;
64682;SDS011;51107;47.652;19.016;2024-02-23T14:12:34;4.68;;;2.12;;
64682;SDS011;51107;47.652;19.016;2024-02-23T14:15:02;10.85;;;3.37;;
64682;SDS011;51107;47.652;19.016;2024-02-23T14:17:32;12.02;;;3.67;;
64682;SDS011;51107;47.652;19.016;2024-02-23T14:20:02;13.52;;;3.45;;
64682;SDS011;51107;47.652;19.016;2024-02-23T14:22:33;16.83;;;4.65;;
64682;SDS011;51107;47.652;19.016;2024-02-23T14:25:02;24.25;;;11.43;;
64682;SDS011;51107;47.652;19.016;2024-02-23T14:27:31;15.30;;;5.95;;
64682;SDS011;51107;47.652;19.016;2024-02-23T14:29:59;11.45;;;5.28;;
64682;SDS011;51107;47.652;19.016;2024-02-23T14:32:29;13.62;;;4.32;;
64682;SDS011;51107;47.652;19.016;2024-02-23T14:34:57;6.62;;;3.12;;
64682;SDS011;51107;47.652;19.016;2024-02-23T14:37:26;6.18;;;3.45;;
64682;SDS011;51107;47.652;19.016;2024-02-23T14:39:54;7.47;;;2.90;;
64682;SDS011;51107;47.652;19.016;2024-02-23T14:42:22;7.25;;;3.45;;
64682;SDS011;51107;47.652;19.016;2024-02-23T14:44:50;5.40;;;3.20;;